createdAt,value
2018-06-13T00:00:11.632Z,3.30
2018-06-13T00:01:11.537Z,3.40
2018-06-13T00:03:05.717Z,5.50
2018-06-13T00:04:05.812Z,6.10
2018-06-13T00:06:00.003Z,3.40
2018-06-13T00:06:59.910Z,3.90
2018-06-13T00:08:54.352Z,3.30
2018-06-13T00:09:54.111Z,4.10
2018-06-13T00:11:49.589Z,4.20
2018-06-13T00:12:48.262Z,3.20
2018-06-13T00:14:43.749Z,4.00
2018-06-13T00:15:44.046Z,4.10
2018-06-13T00:17:38.192Z,3.20
2018-06-13T00:18:37.858Z,4.30
2018-06-13T00:20:32.111Z,3.60
2018-06-13T00:21:32.369Z,4.80
2018-06-13T00:23:26.806Z,4.00
2018-06-13T00:24:26.560Z,3.10
2018-06-13T00:26:21.235Z,3.30
2018-06-13T00:27:21.241Z,4.70
2018-06-13T00:29:15.624Z,6.60
2018-06-13T00:30:15.833Z,3.60
2018-06-13T00:33:12.161Z,3.70
2018-06-13T00:35:04.124Z,4.90
2018-06-13T00:36:04.151Z,5.40
2018-06-13T00:37:57.874Z,3.70
2018-06-13T00:38:58.318Z,4.20
2018-06-13T00:40:52.934Z,4.60
2018-06-13T00:41:52.985Z,3.80
2018-06-13T00:43:47.236Z,4.20
2018-06-13T00:44:47.666Z,4.50
2018-06-13T00:46:41.763Z,5.20
2018-06-13T00:47:41.904Z,4.60
2018-06-13T00:49:35.565Z,4.70
2018-06-13T00:50:36.137Z,4.30
2018-06-13T00:52:30.127Z,3.40
2018-06-13T00:53:30.242Z,4.10
2018-06-13T00:55:24.139Z,5.40
2018-06-13T00:56:24.408Z,4.70
2018-06-13T00:57:24.463Z,6.00
2018-06-13T00:58:24.378Z,3.50
2018-06-13T00:59:24.453Z,5.00
2018-06-13T01:00:24.462Z,4.00
2018-06-13T01:01:23.995Z,4.80
2018-06-13T01:02:24.373Z,4.90
2018-06-13T01:03:24.382Z,4.70
2018-06-13T01:04:24.435Z,4.00
2018-06-13T01:05:24.347Z,4.50
2018-06-13T01:06:24.363Z,4.20
2018-06-13T01:07:24.355Z,6.40
2018-06-13T01:08:24.313Z,5.80
2018-06-13T01:09:24.370Z,6.80
2018-06-13T01:10:24.383Z,4.70
2018-06-13T01:11:24.379Z,5.10
2018-06-13T01:12:24.403Z,5.40
2018-06-13T01:13:30.556Z,5.30
2018-06-13T01:14:30.396Z,5.80
2018-06-13T01:15:24.399Z,7.00
2018-06-13T01:16:24.385Z,6.00
2018-06-13T01:17:24.351Z,4.80
2018-06-13T01:18:24.365Z,5.90
2018-06-13T01:19:24.371Z,6.00
2018-06-13T01:20:24.430Z,5.90
2018-06-13T01:21:24.382Z,5.50
2018-06-13T01:22:24.383Z,4.40
2018-06-13T01:23:24.448Z,6.40
2018-06-13T01:24:24.411Z,4.40
2018-06-13T01:25:24.464Z,4.90
2018-06-13T01:26:24.491Z,5.80
2018-06-13T01:27:24.391Z,5.10
2018-06-13T01:28:24.421Z,5.30
2018-06-13T01:29:24.469Z,4.00
2018-06-13T01:30:24.447Z,4.70
2018-06-13T01:31:24.479Z,5.40
2018-06-13T01:32:24.355Z,4.60
2018-06-13T01:33:24.363Z,5.10
2018-06-13T01:34:24.391Z,5.20
2018-06-13T01:35:24.408Z,4.80
2018-06-13T01:36:30.353Z,5.40
2018-06-13T01:37:30.425Z,4.80
2018-06-13T01:38:24.374Z,6.70
2018-06-13T01:39:24.378Z,6.00
2018-06-13T01:40:24.348Z,5.60
2018-06-13T01:41:24.397Z,5.40
2018-06-13T01:42:24.374Z,4.30
2018-06-13T01:43:24.375Z,5.70
2018-06-13T01:44:24.380Z,5.90
2018-06-13T01:45:24.393Z,6.90
2018-06-13T01:46:24.356Z,6.10
2018-06-13T01:47:24.389Z,4.20
2018-06-13T01:48:24.409Z,5.70
2018-06-13T01:49:24.468Z,5.00
2018-06-13T01:50:24.449Z,5.10
2018-06-13T01:51:24.480Z,4.40
2018-06-13T01:52:24.375Z,6.70
2018-06-13T01:53:24.405Z,5.30
2018-06-13T01:54:24.391Z,5.20
2018-06-13T01:55:24.375Z,5.20
2018-06-13T01:56:24.390Z,5.30
2018-06-13T01:57:24.383Z,5.30
2018-06-13T01:58:24.567Z,6.10
2018-06-13T01:59:24.383Z,5.40
2018-06-13T02:00:24.358Z,6.30
2018-06-13T02:01:24.337Z,8.50
2018-06-13T02:02:26.172Z,6.20
2018-06-13T02:03:24.362Z,7.00
2018-06-13T02:04:24.345Z,7.50
2018-06-13T02:05:24.311Z,5.80
2018-06-13T02:06:24.410Z,5.30
2018-06-13T02:07:24.375Z,6.30
2018-06-13T02:08:24.381Z,6.10
2018-06-13T02:09:24.300Z,5.20
2018-06-13T02:10:24.368Z,6.00
2018-06-13T02:11:24.381Z,5.90
2018-06-13T02:12:24.386Z,4.70
2018-06-13T02:13:23.973Z,4.50
2018-06-13T02:14:24.382Z,5.40
2018-06-13T02:15:24.344Z,6.60
2018-06-13T02:16:24.380Z,5.10
2018-06-13T02:17:24.464Z,5.10
2018-06-13T02:18:24.465Z,5.50
2018-06-13T02:19:24.371Z,6.30
2018-06-13T02:20:24.404Z,8.40
2018-06-13T02:21:24.381Z,6.50
2018-06-13T02:22:24.416Z,4.80
2018-06-13T02:23:24.349Z,5.40
2018-06-13T02:24:24.394Z,6.20
2018-06-13T02:25:24.466Z,7.60
2018-06-13T02:26:24.465Z,6.60
2018-06-13T02:27:24.530Z,5.50
2018-06-13T02:28:24.469Z,6.90
2018-06-13T02:29:24.392Z,5.80
2018-06-13T02:30:24.367Z,5.90
2018-06-13T02:31:24.403Z,5.20
2018-06-13T02:32:24.339Z,5.70
2018-06-13T02:33:24.380Z,5.30
2018-06-13T02:34:24.349Z,5.20
2018-06-13T02:35:24.339Z,5.40
2018-06-13T02:36:24.344Z,6.00
2018-06-13T02:37:24.328Z,7.60
2018-06-13T02:38:24.364Z,6.20
2018-06-13T02:39:24.367Z,6.80
2018-06-13T02:40:24.395Z,8.70
2018-06-13T02:41:24.434Z,6.00
2018-06-13T02:42:24.320Z,5.20
2018-06-13T02:43:24.394Z,5.10
2018-06-13T02:44:24.374Z,5.30
2018-06-13T02:45:26.589Z,6.50
2018-06-13T02:46:24.363Z,6.80
2018-06-13T02:48:24.341Z,6.10
2018-06-13T02:49:24.505Z,5.30
2018-06-13T02:50:24.364Z,7.70
2018-06-13T02:51:24.383Z,6.10
2018-06-13T02:52:24.483Z,5.50
2018-06-13T02:53:24.372Z,5.60
2018-06-13T02:54:23.913Z,5.10
2018-06-13T02:55:24.360Z,4.40
2018-06-13T02:56:24.464Z,4.80
2018-06-13T02:57:24.387Z,5.30
2018-06-13T02:58:24.487Z,4.90
2018-06-13T02:59:24.364Z,5.50
2018-06-13T03:00:24.318Z,5.30
2018-06-13T03:01:24.395Z,7.40
2018-06-13T03:02:24.380Z,6.70
2018-06-13T03:03:24.391Z,7.10
2018-06-13T03:04:24.398Z,4.70
2018-06-13T03:05:24.392Z,5.80
2018-06-13T03:06:24.357Z,6.80
2018-06-13T03:07:24.473Z,6.60
2018-06-13T03:08:24.400Z,8.20
2018-06-13T03:09:24.446Z,7.20
2018-06-13T03:10:24.480Z,6.90
2018-06-13T03:11:24.448Z,5.70
2018-06-13T03:12:24.461Z,8.00
2018-06-13T03:13:24.413Z,6.10
2018-06-13T03:14:24.473Z,6.60
2018-06-13T03:15:24.588Z,7.50
2018-06-13T03:16:24.381Z,6.00
2018-06-13T03:17:24.374Z,5.20
2018-06-13T03:18:24.454Z,6.50
2018-06-13T03:19:23.905Z,5.10
2018-06-13T03:20:24.383Z,5.90
2018-06-13T03:21:24.396Z,6.20
2018-06-13T03:22:24.390Z,6.00
2018-06-13T03:23:38.488Z,8.30
2018-06-13T03:24:38.385Z,8.10
2018-06-13T03:25:24.399Z,5.70
2018-06-13T03:26:24.415Z,7.60
2018-06-13T03:27:24.343Z,5.80
2018-06-13T03:28:24.374Z,6.30
2018-06-13T03:29:24.384Z,6.10
2018-06-13T03:30:23.786Z,5.40
2018-06-13T03:31:24.323Z,6.60
2018-06-13T03:32:24.423Z,5.50
2018-06-13T03:33:24.718Z,6.70
2018-06-13T03:34:24.440Z,7.50
2018-06-13T03:35:24.633Z,8.00
2018-06-13T03:36:24.414Z,5.60
2018-06-13T03:37:24.427Z,7.20
2018-06-13T03:38:24.388Z,7.20
2018-06-13T03:39:24.435Z,6.20
2018-06-13T03:40:24.550Z,7.20
2018-06-13T03:41:24.487Z,7.10
2018-06-13T03:42:24.376Z,6.10
2018-06-13T03:43:24.469Z,6.70
2018-06-13T03:44:24.499Z,6.70
2018-06-13T03:45:24.429Z,8.40
2018-06-13T03:46:24.435Z,7.70
2018-06-13T03:47:24.415Z,8.00
2018-06-13T03:48:24.461Z,6.90
2018-06-13T03:49:24.433Z,5.80
2018-06-13T03:50:23.842Z,7.50
2018-06-13T03:51:24.373Z,8.10
2018-06-13T03:52:24.451Z,7.50
2018-06-13T03:53:24.447Z,7.50
2018-06-13T03:54:24.357Z,8.90
2018-06-13T03:55:24.452Z,6.90
2018-06-13T03:56:24.363Z,7.20
2018-06-13T03:57:24.392Z,5.90
2018-06-13T03:58:24.470Z,6.80
2018-06-13T03:59:24.375Z,6.70
2018-06-13T04:00:24.451Z,8.00
2018-06-13T04:01:24.370Z,7.10
2018-06-13T04:02:24.423Z,5.20
2018-06-13T04:03:24.425Z,6.80
2018-06-13T04:04:24.374Z,7.10
2018-06-13T04:05:24.166Z,8.30
2018-06-13T04:06:24.136Z,7.70
2018-06-13T04:07:24.238Z,6.60
2018-06-13T04:08:24.301Z,9.90
2018-06-13T04:09:24.297Z,6.70
2018-06-13T04:10:24.100Z,8.10
2018-06-13T04:11:24.165Z,6.20
2018-06-13T04:12:23.818Z,6.40
2018-06-13T04:13:24.098Z,7.90
2018-06-13T04:15:24.072Z,7.00
2018-06-13T04:16:24.150Z,7.90
2018-06-13T04:17:24.193Z,7.00
2018-06-13T04:18:23.759Z,8.90
2018-06-13T04:19:24.147Z,7.20
2018-06-13T04:20:24.127Z,6.40
2018-06-13T04:21:24.246Z,6.90
2018-06-13T04:22:24.205Z,6.70
2018-06-13T04:23:24.167Z,8.20
2018-06-13T04:24:24.185Z,6.70
2018-06-13T04:25:24.167Z,6.60
2018-06-13T04:26:24.155Z,8.80
2018-06-13T04:27:24.216Z,8.40
2018-06-13T04:28:24.188Z,9.50
2018-06-13T04:29:24.255Z,6.70
2018-06-13T04:30:24.194Z,6.40
2018-06-13T04:31:24.210Z,5.50
2018-06-13T04:32:24.191Z,8.30
2018-06-13T04:33:24.670Z,7.20
2018-06-13T04:34:24.153Z,7.80
2018-06-13T04:35:24.618Z,9.40
2018-06-13T04:36:23.790Z,8.20
2018-06-13T04:37:23.997Z,6.90
2018-06-13T04:38:24.197Z,6.00
2018-06-13T04:39:24.063Z,7.90
2018-06-13T04:40:24.396Z,6.70
2018-06-13T04:41:24.164Z,8.60
2018-06-13T04:42:25.198Z,5.10
2018-06-13T04:43:23.748Z,6.80
2018-06-13T04:44:24.367Z,5.90
2018-06-13T04:45:23.771Z,7.10
2018-06-13T04:46:24.448Z,5.00
2018-06-13T04:47:24.131Z,5.20
2018-06-13T04:48:24.445Z,7.00
2018-06-13T04:49:26.005Z,6.40
2018-06-13T04:50:26.807Z,8.60
2018-06-13T04:51:23.761Z,5.90
2018-06-13T04:52:24.221Z,6.50
2018-06-13T04:53:24.213Z,7.00
2018-06-13T04:54:24.174Z,7.10
2018-06-13T04:55:24.208Z,6.20
2018-06-13T04:56:24.209Z,7.50
2018-06-13T04:57:24.659Z,4.80
2018-06-13T04:58:24.210Z,6.40
2018-06-13T04:59:24.169Z,8.10
2018-06-13T05:00:24.412Z,8.90
2018-06-13T05:01:24.646Z,7.00
2018-06-13T05:02:24.104Z,5.20
2018-06-13T05:03:24.167Z,5.40
2018-06-13T05:04:24.680Z,7.30
2018-06-13T05:05:24.247Z,5.70
2018-06-13T05:06:24.117Z,9.10
2018-06-13T05:07:24.118Z,6.30
2018-06-13T05:08:23.811Z,7.50
2018-06-13T05:09:24.269Z,7.50
2018-06-13T05:10:24.619Z,5.20
2018-06-13T05:11:24.318Z,7.60
2018-06-13T05:12:24.119Z,6.10
2018-06-13T05:13:24.104Z,4.50
2018-06-13T05:14:24.374Z,6.80
2018-06-13T05:15:23.989Z,8.40
2018-06-13T05:16:24.096Z,5.40
2018-06-13T05:17:24.026Z,5.40
2018-06-13T05:18:24.088Z,5.10
2018-06-13T05:19:24.002Z,6.20
2018-06-13T05:20:24.056Z,5.70
2018-06-13T05:21:24.048Z,6.50
2018-06-13T05:22:24.036Z,5.50
2018-06-13T05:23:24.098Z,8.90
2018-06-13T05:24:24.058Z,6.50
2018-06-13T05:25:24.115Z,7.90
2018-06-13T05:26:24.714Z,6.50
2018-06-13T05:27:23.332Z,6.60
2018-06-13T05:28:24.067Z,6.30
2018-06-13T05:30:24.183Z,6.00
2018-06-13T05:31:26.485Z,7.70
2018-06-13T05:32:24.076Z,5.60
2018-06-13T05:33:24.481Z,5.00
2018-06-13T05:34:24.389Z,7.60
2018-06-13T05:35:24.475Z,7.30
2018-06-13T05:36:24.517Z,6.20
2018-06-13T05:37:24.082Z,6.50
2018-06-13T05:38:24.503Z,5.90
2018-06-13T05:39:24.429Z,6.60
2018-06-13T05:40:23.737Z,6.60
2018-06-13T05:41:24.656Z,6.90
2018-06-13T05:42:24.646Z,8.90
2018-06-13T05:43:24.192Z,7.00
2018-06-13T05:44:24.107Z,9.90
2018-06-13T05:45:24.113Z,7.50
2018-06-13T05:46:24.018Z,5.50
2018-06-13T05:47:24.515Z,6.00
2018-06-13T05:48:26.184Z,9.70
2018-06-13T05:49:24.472Z,9.40
2018-06-13T05:50:24.460Z,8.70
2018-06-13T05:51:24.391Z,8.10
2018-06-13T05:52:24.067Z,5.80
2018-06-13T05:53:24.022Z,5.90
2018-06-13T05:54:24.032Z,8.00
2018-06-13T05:55:23.957Z,6.90
2018-06-13T05:56:30.243Z,10.00
2018-06-13T05:57:24.595Z,7.10
2018-06-13T05:58:23.219Z,9.00
2018-06-13T05:59:22.670Z,8.10
2018-06-13T06:00:22.608Z,10.30
2018-06-13T06:01:22.656Z,7.90
2018-06-13T06:02:26.433Z,10.30
2018-06-13T06:03:24.560Z,7.90
2018-06-13T06:04:22.611Z,6.30
2018-06-13T06:05:22.590Z,10.50
2018-06-13T06:06:22.622Z,6.60
2018-06-13T06:07:22.608Z,6.40
2018-06-13T06:08:22.634Z,7.50
2018-06-13T06:09:22.605Z,8.90
2018-06-13T06:10:29.382Z,7.80
2018-06-13T06:11:22.653Z,5.50
2018-06-13T06:12:23.477Z,7.00
2018-06-13T06:13:22.601Z,6.70
2018-06-13T06:14:22.599Z,8.20
2018-06-13T06:15:22.660Z,6.30
2018-06-13T06:16:23.757Z,9.70
2018-06-13T06:17:22.627Z,6.20
2018-06-13T06:18:23.162Z,7.10
2018-06-13T06:19:22.653Z,8.30
2018-06-13T06:20:22.604Z,7.80
2018-06-13T06:21:23.722Z,6.60
2018-06-13T06:22:23.561Z,7.00
2018-06-13T06:23:25.927Z,7.00
2018-06-13T06:24:22.592Z,9.90
2018-06-13T06:25:24.046Z,6.50
2018-06-13T06:26:22.733Z,6.00
2018-06-13T06:27:22.593Z,8.70
2018-06-13T06:28:22.592Z,7.50
2018-06-13T06:29:22.595Z,10.40
2018-06-13T06:30:23.795Z,9.00
2018-06-13T06:31:23.995Z,5.80
2018-06-13T06:32:24.025Z,6.90
2018-06-13T06:33:24.136Z,8.90
2018-06-13T06:34:23.671Z,7.60
2018-06-13T06:35:24.187Z,8.20
2018-06-13T06:36:24.201Z,6.60
2018-06-13T06:37:23.715Z,7.30
2018-06-13T06:38:23.713Z,7.20
2018-06-13T06:39:23.761Z,7.40
2018-06-13T06:40:24.224Z,5.40
2018-06-13T06:41:23.774Z,5.40
2018-06-13T06:42:24.013Z,5.00
2018-06-13T06:43:23.820Z,6.40
2018-06-13T06:44:23.829Z,6.40
2018-06-13T06:45:24.203Z,6.90
2018-06-13T06:46:23.938Z,7.80
2018-06-13T06:47:26.204Z,6.20
2018-06-13T06:48:24.154Z,5.80
2018-06-13T06:49:24.253Z,5.20
2018-06-13T06:50:24.425Z,7.60
2018-06-13T06:51:24.237Z,6.80
2018-06-13T06:52:24.079Z,6.30
2018-06-13T06:53:24.488Z,7.30
2018-06-13T06:54:24.192Z,6.30
2018-06-13T06:55:24.016Z,5.50
2018-06-13T06:56:24.216Z,7.90
2018-06-13T06:57:23.962Z,4.20
2018-06-13T06:58:24.178Z,6.30
2018-06-13T06:59:24.573Z,7.10
2018-06-13T07:00:23.995Z,5.50
2018-06-13T07:01:26.253Z,4.70
2018-06-13T07:02:23.798Z,6.20
2018-06-13T07:03:23.755Z,9.10
2018-06-13T07:04:24.512Z,4.90
2018-06-13T07:05:24.715Z,6.20
2018-06-13T07:06:24.262Z,5.50
2018-06-13T07:07:24.206Z,4.70
2018-06-13T07:08:24.270Z,3.60
2018-06-13T07:09:26.137Z,5.70
2018-06-13T07:10:23.793Z,5.10
2018-06-13T07:11:24.190Z,6.60
2018-06-13T07:12:24.171Z,5.00
2018-06-13T07:13:24.173Z,5.10
2018-06-13T07:14:24.179Z,4.10
2018-06-13T07:16:24.555Z,4.50
2018-06-13T07:17:24.538Z,5.50
2018-06-13T07:18:24.224Z,3.60
2018-06-13T07:19:24.850Z,5.30
2018-06-13T07:20:24.240Z,6.60
2018-06-13T07:21:24.647Z,4.80
2018-06-13T07:22:24.059Z,5.60
2018-06-13T07:23:23.890Z,7.90
2018-06-13T07:24:24.716Z,5.60
2018-06-13T07:25:24.192Z,6.40
2018-06-13T07:26:24.190Z,3.80
2018-06-13T07:27:24.243Z,5.90
2018-06-13T07:28:24.289Z,5.70
2018-06-13T07:29:24.466Z,5.00
2018-06-13T07:30:24.612Z,5.70
2018-06-13T07:31:24.261Z,3.80
2018-06-13T07:32:23.651Z,5.90
2018-06-13T07:33:26.279Z,5.10
2018-06-13T07:34:24.115Z,6.00
2018-06-13T07:35:23.620Z,5.20
2018-06-13T07:36:24.614Z,5.90
2018-06-13T07:37:24.932Z,5.40
2018-06-13T07:38:23.894Z,7.00
2018-06-13T07:39:23.682Z,4.90
2018-06-13T07:40:24.036Z,5.30
2018-06-13T07:41:24.002Z,4.50
2018-06-13T07:42:24.041Z,4.30
2018-06-13T07:43:24.281Z,5.90
2018-06-13T07:44:24.517Z,6.20
2018-06-13T07:45:24.231Z,4.10
2018-06-13T07:46:24.797Z,6.10
2018-06-13T07:47:24.530Z,4.50
2018-06-13T07:48:24.047Z,4.20
2018-06-13T07:49:24.093Z,5.20
2018-06-13T07:50:24.280Z,3.90
2018-06-13T07:51:24.525Z,5.60
2018-06-13T07:52:24.063Z,4.10
2018-06-13T07:53:24.674Z,5.50
2018-06-13T07:54:24.549Z,5.70
2018-06-13T07:55:24.504Z,6.10
2018-06-13T07:56:24.051Z,6.00
2018-06-13T07:57:24.144Z,5.20
2018-06-13T07:58:24.605Z,4.20
2018-06-13T07:59:28.242Z,5.30
2018-06-13T08:00:24.692Z,6.20
2018-06-13T08:01:24.597Z,5.30
2018-06-13T08:02:24.115Z,6.80
2018-06-13T08:03:24.561Z,5.50
2018-06-13T08:04:24.740Z,6.10
2018-06-13T08:05:22.716Z,5.00
2018-06-13T08:06:24.240Z,5.00
2018-06-13T08:07:26.097Z,6.30
2018-06-13T08:08:24.421Z,5.20
2018-06-13T08:09:24.344Z,4.80
2018-06-13T08:10:24.218Z,5.00
2018-06-13T08:11:24.010Z,4.50
2018-06-13T08:12:24.642Z,4.90
2018-06-13T08:13:24.820Z,4.80
2018-06-13T08:14:24.102Z,3.50
2018-06-13T08:15:24.392Z,3.80
2018-06-13T08:16:26.062Z,5.30
2018-06-13T08:17:24.241Z,6.20
2018-06-13T08:18:24.445Z,5.30
2018-06-13T08:19:24.574Z,5.00
2018-06-13T08:20:24.188Z,5.20
2018-06-13T08:21:24.157Z,5.30
2018-06-13T08:22:24.544Z,6.20
2018-06-13T08:23:26.556Z,4.90
2018-06-13T08:24:24.098Z,4.30
2018-06-13T08:25:24.438Z,6.40
2018-06-13T08:26:24.737Z,4.70
2018-06-13T08:27:24.244Z,4.40
2018-06-13T08:28:24.654Z,5.30
2018-06-13T08:29:25.035Z,5.30
2018-06-13T08:30:24.091Z,7.30
2018-06-13T08:31:24.542Z,5.30
2018-06-13T08:32:24.640Z,4.00
2018-06-13T08:33:24.123Z,4.30
2018-06-13T08:34:24.245Z,5.50
2018-06-13T08:35:24.220Z,6.70
2018-06-13T08:36:24.208Z,5.00
2018-06-13T08:37:24.094Z,4.60
2018-06-13T08:38:24.613Z,4.10
2018-06-13T08:40:24.201Z,5.90
2018-06-13T08:41:23.702Z,5.20
2018-06-13T08:42:24.224Z,6.30
2018-06-13T08:43:24.139Z,6.20
2018-06-13T08:44:24.417Z,5.40
2018-06-13T08:45:24.557Z,4.80
2018-06-13T08:46:23.704Z,5.40
2018-06-13T08:47:24.341Z,2.90
2018-06-13T08:48:24.514Z,4.00
2018-06-13T08:49:24.086Z,6.30
2018-06-13T08:50:24.332Z,4.40
2018-06-13T08:51:24.905Z,6.00
2018-06-13T08:52:24.393Z,5.60
2018-06-13T08:53:24.615Z,5.50
2018-06-13T08:54:24.413Z,4.70
2018-06-13T08:55:24.097Z,4.80
2018-06-13T08:56:24.046Z,4.00
2018-06-13T08:57:25.797Z,5.00
2018-06-13T08:58:24.629Z,5.50
2018-06-13T08:59:24.290Z,4.70
2018-06-13T09:00:24.454Z,5.50
2018-06-13T09:01:24.700Z,3.80
2018-06-13T09:02:24.246Z,5.80
2018-06-13T09:03:24.255Z,5.40
2018-06-13T09:04:24.745Z,5.20
2018-06-13T09:05:24.551Z,5.00
2018-06-13T09:06:24.452Z,5.10
2018-06-13T09:07:24.438Z,4.60
2018-06-13T09:08:24.207Z,4.10
2018-06-13T09:09:24.211Z,5.10
2018-06-13T09:10:24.246Z,5.80
2018-06-13T09:11:24.856Z,3.80
2018-06-13T09:12:26.717Z,7.30
2018-06-13T09:13:24.473Z,6.40
2018-06-13T09:14:24.809Z,3.90
2018-06-13T09:15:24.000Z,6.40
2018-06-13T09:16:24.293Z,3.90
2018-06-13T09:17:24.070Z,3.30
2018-06-13T09:18:24.583Z,5.60
2018-06-13T09:19:26.589Z,3.20
2018-06-13T09:20:25.146Z,4.00
2018-06-13T09:21:24.296Z,3.00
2018-06-13T09:22:24.323Z,4.10
2018-06-13T09:23:24.815Z,4.60
2018-06-13T09:24:24.690Z,7.60
2018-06-13T09:25:23.864Z,7.30
2018-06-13T09:26:24.117Z,3.90
2018-06-13T09:27:24.868Z,6.00
2018-06-13T09:28:24.955Z,3.60
2018-06-13T09:29:24.648Z,4.70
2018-06-13T09:30:24.074Z,4.40
2018-06-13T09:31:30.302Z,3.60
2018-06-13T09:32:30.060Z,3.60
2018-06-13T09:33:24.627Z,4.10
2018-06-13T09:34:24.712Z,3.80
2018-06-13T09:35:24.097Z,4.40
2018-06-13T09:36:24.241Z,5.20
2018-06-13T09:37:24.815Z,2.40
2018-06-13T09:38:24.812Z,4.10
2018-06-13T09:39:24.022Z,3.20
2018-06-13T09:40:24.186Z,3.30
2018-06-13T09:41:24.094Z,5.00
2018-06-13T09:42:26.434Z,3.60
2018-06-13T09:43:24.458Z,4.20
2018-06-13T09:44:23.843Z,3.30
2018-06-13T09:45:24.643Z,4.60
2018-06-13T09:46:24.894Z,3.90
2018-06-13T09:47:24.204Z,4.30
2018-06-13T09:48:24.032Z,7.20
2018-06-13T09:49:24.042Z,4.00
2018-06-13T09:50:24.737Z,5.60
2018-06-13T09:51:24.148Z,5.70
2018-06-13T09:52:24.157Z,5.00
2018-06-13T09:53:24.613Z,4.00
2018-06-13T09:54:24.559Z,3.80
2018-06-13T09:55:24.602Z,5.90
2018-06-13T09:56:24.581Z,7.30
2018-06-13T09:57:24.193Z,5.20
2018-06-13T09:58:24.297Z,3.30
2018-06-13T09:59:24.613Z,3.60
2018-06-13T10:00:25.282Z,4.00
2018-06-13T10:01:24.298Z,4.30
2018-06-13T10:02:25.158Z,4.00
2018-06-13T10:03:24.234Z,4.90
2018-06-13T10:04:24.458Z,3.90
2018-06-13T10:05:24.575Z,4.20
2018-06-13T10:06:24.775Z,3.30
2018-06-13T10:07:26.066Z,4.50
2018-06-13T10:08:24.272Z,2.30
2018-06-13T10:09:24.495Z,3.20
2018-06-13T10:10:24.272Z,5.00
2018-06-13T10:11:23.760Z,3.50
2018-06-13T10:12:24.571Z,4.00
2018-06-13T10:13:24.481Z,3.20
2018-06-13T10:14:24.798Z,4.60
2018-06-13T10:15:25.458Z,3.70
2018-06-13T10:16:25.177Z,3.40
2018-06-13T10:17:24.523Z,4.60
2018-06-13T10:18:24.237Z,3.00
2018-06-13T10:19:24.240Z,3.20
2018-06-13T10:20:24.377Z,4.40
2018-06-13T10:21:24.551Z,2.90
2018-06-13T10:22:24.282Z,3.70
2018-06-13T10:23:24.245Z,4.00
2018-06-13T10:24:24.109Z,5.00
2018-06-13T10:25:24.750Z,2.40
2018-06-13T10:26:24.542Z,2.30
2018-06-13T10:27:24.098Z,3.20
2018-06-13T10:28:26.563Z,3.10
2018-06-13T10:29:24.354Z,2.80
2018-06-13T10:30:24.665Z,2.20
2018-06-13T10:31:24.428Z,3.10
2018-06-13T10:32:24.802Z,3.80
2018-06-13T10:33:24.221Z,2.60
2018-06-13T10:34:23.935Z,4.20
2018-06-13T10:35:24.797Z,3.20
2018-06-13T10:36:24.947Z,5.50
2018-06-13T10:37:24.112Z,3.90
2018-06-13T10:38:24.629Z,3.40
2018-06-13T10:39:23.919Z,2.60
2018-06-13T10:40:24.756Z,3.10
2018-06-13T10:41:24.175Z,4.00
2018-06-13T10:42:24.369Z,3.80
2018-06-13T10:43:25.804Z,3.30
2018-06-13T10:44:23.752Z,3.80
2018-06-13T10:45:24.081Z,3.90
2018-06-13T10:46:24.315Z,3.60
2018-06-13T10:47:24.840Z,3.40
2018-06-13T10:48:24.535Z,2.90
2018-06-13T10:49:24.591Z,2.60
2018-06-13T10:50:24.730Z,3.40
2018-06-13T10:51:24.102Z,5.00
2018-06-13T10:52:24.258Z,2.50
2018-06-13T10:53:24.585Z,3.60
2018-06-13T10:54:24.878Z,4.10
2018-06-13T10:55:24.229Z,3.30
2018-06-13T10:56:24.381Z,3.70
2018-06-13T10:57:24.769Z,3.70
2018-06-13T10:58:24.396Z,4.20
2018-06-13T10:59:24.236Z,3.20
2018-06-13T11:00:25.113Z,3.20
2018-06-13T11:01:24.749Z,4.50
2018-06-13T11:02:26.797Z,3.90
2018-06-13T11:03:24.317Z,3.20
2018-06-13T11:04:24.800Z,2.90
2018-06-13T11:05:24.302Z,3.70
2018-06-13T11:06:24.356Z,3.80
2018-06-13T11:07:24.388Z,4.20
2018-06-13T11:08:25.253Z,4.40
2018-06-13T11:09:24.743Z,4.80
2018-06-13T11:10:24.478Z,3.00
2018-06-13T11:11:26.704Z,2.90
2018-06-13T11:12:24.393Z,5.00
2018-06-13T11:13:24.949Z,5.50
2018-06-13T11:14:24.806Z,5.30
2018-06-13T11:15:24.442Z,6.50
2018-06-13T11:16:24.227Z,2.60
2018-06-13T11:17:24.303Z,3.80
2018-06-13T11:18:23.068Z,4.00
2018-06-13T11:19:24.807Z,3.30
2018-06-13T11:20:24.676Z,3.90
2018-06-13T11:21:25.147Z,3.90
2018-06-13T11:22:24.303Z,3.80
2018-06-13T11:23:24.693Z,3.80
2018-06-13T11:24:24.994Z,3.50
2018-06-13T11:25:24.807Z,4.50
2018-06-13T11:26:25.604Z,5.50
2018-06-13T11:27:26.560Z,7.00
2018-06-13T11:28:24.532Z,4.60
2018-06-13T11:29:24.764Z,6.30
2018-06-13T11:30:26.825Z,4.60
2018-06-13T11:31:26.785Z,4.20
2018-06-13T11:32:24.805Z,5.00
2018-06-13T11:33:24.805Z,4.20
2018-06-13T11:34:24.811Z,5.10
2018-06-13T11:35:24.820Z,3.80
2018-06-13T11:36:24.981Z,4.90
2018-06-13T11:37:24.808Z,4.20
2018-06-13T11:38:25.337Z,4.20
2018-06-13T11:39:24.309Z,5.40
2018-06-13T11:40:24.309Z,6.20
2018-06-13T11:41:24.257Z,4.20
2018-06-13T11:42:24.782Z,3.90
2018-06-13T11:43:24.863Z,3.80
2018-06-13T11:44:24.663Z,4.00
2018-06-13T11:45:26.136Z,4.80
2018-06-13T11:46:24.682Z,3.80
2018-06-13T11:47:24.789Z,3.50
2018-06-13T11:48:26.075Z,4.20
2018-06-13T11:49:24.629Z,6.50
2018-06-13T11:50:24.846Z,5.10
2018-06-13T11:51:23.897Z,4.20
2018-06-13T11:52:24.691Z,4.90
2018-06-13T11:53:25.165Z,4.80
2018-06-13T11:54:24.241Z,5.40
2018-06-13T11:55:25.199Z,6.50
2018-06-13T11:56:24.543Z,5.70
2018-06-13T11:57:25.057Z,4.20
2018-06-13T11:58:24.321Z,5.60
2018-06-13T11:59:26.731Z,5.30
2018-06-13T12:00:24.882Z,4.30
2018-06-13T12:01:24.723Z,4.80
2018-06-13T12:02:24.842Z,3.90
2018-06-13T12:03:24.824Z,4.70
2018-06-13T12:04:25.124Z,4.40
2018-06-13T12:05:24.627Z,5.10
2018-06-13T12:06:24.803Z,4.10
2018-06-13T12:07:24.606Z,3.90
2018-06-13T12:08:24.865Z,5.30
2018-06-13T12:09:24.316Z,4.60
2018-06-13T12:10:24.820Z,2.90
2018-06-13T12:11:24.350Z,4.10
2018-06-13T12:12:24.473Z,3.60
2018-06-13T12:13:24.345Z,3.20
2018-06-13T12:14:24.319Z,5.10
2018-06-13T12:15:24.346Z,2.70
2018-06-13T12:16:24.206Z,4.00
2018-06-13T12:17:24.641Z,5.30
2018-06-13T12:18:24.774Z,4.10
2018-06-13T12:19:24.437Z,3.70
2018-06-13T12:20:24.823Z,4.20
2018-06-13T12:21:24.764Z,6.90
2018-06-13T12:22:24.863Z,5.30
2018-06-13T12:23:24.360Z,4.40
2018-06-13T12:24:26.742Z,3.70
2018-06-13T12:25:27.856Z,4.80
2018-06-13T12:26:24.290Z,5.10
2018-06-13T12:27:26.668Z,3.20
2018-06-13T12:28:25.346Z,4.70
2018-06-13T12:29:24.304Z,6.00
2018-06-13T12:30:25.141Z,2.80
2018-06-13T12:31:24.744Z,2.80
2018-06-13T12:32:24.917Z,2.80
2018-06-13T12:33:24.939Z,3.10
2018-06-13T12:34:25.288Z,3.50
2018-06-13T12:35:24.873Z,4.50
2018-06-13T12:36:25.753Z,2.50
2018-06-13T12:37:24.826Z,4.50
2018-06-13T12:38:24.791Z,3.30
2018-06-13T12:39:24.915Z,4.50
2018-06-13T12:40:24.704Z,3.50
2018-06-13T12:41:24.622Z,3.80
2018-06-13T12:42:24.888Z,3.80
2018-06-13T12:43:24.567Z,5.30
2018-06-13T12:44:25.144Z,3.60
2018-06-13T12:45:24.774Z,4.20
2018-06-13T12:46:25.414Z,5.50
2018-06-13T12:47:24.632Z,3.20
2018-06-13T12:48:24.655Z,3.10
2018-06-13T12:49:24.721Z,4.20
2018-06-13T12:50:24.719Z,3.90
2018-06-13T12:51:24.734Z,4.90
2018-06-13T12:52:25.168Z,3.50
2018-06-13T12:53:24.366Z,4.10
2018-06-13T12:54:25.324Z,2.40
2018-06-13T12:55:25.180Z,4.70
2018-06-13T12:56:25.153Z,5.10
2018-06-13T12:57:24.950Z,4.60
2018-06-13T12:58:25.244Z,4.60
2018-06-13T12:59:24.692Z,2.80
2018-06-13T13:00:25.199Z,3.50
2018-06-13T13:01:24.640Z,3.20
2018-06-13T13:02:24.675Z,2.80
2018-06-13T13:03:24.851Z,4.40
2018-06-13T13:04:26.286Z,3.80
2018-06-13T13:05:25.319Z,4.20
2018-06-13T13:06:24.894Z,4.00
2018-06-13T13:07:24.859Z,4.30
2018-06-13T13:08:25.691Z,3.60
2018-06-13T13:09:25.139Z,4.30
2018-06-13T13:10:26.380Z,4.30
2018-06-13T13:11:25.213Z,3.10
2018-06-13T13:12:24.879Z,4.30
2018-06-13T13:13:25.230Z,4.30
2018-06-13T13:14:24.622Z,2.80
2018-06-13T13:15:25.183Z,4.80
2018-06-13T13:16:24.926Z,5.30
2018-06-13T13:17:24.522Z,4.20
2018-06-13T13:18:25.035Z,5.10
2018-06-13T13:19:25.117Z,3.50
2018-06-13T13:20:24.936Z,3.40
2018-06-13T13:21:24.818Z,4.00
2018-06-13T13:22:27.061Z,6.30
2018-06-13T13:23:27.172Z,3.50
2018-06-13T13:24:24.628Z,3.30
2018-06-13T13:25:24.881Z,3.60
2018-06-13T13:26:24.862Z,2.90
2018-06-13T13:27:25.357Z,5.20
2018-06-13T13:28:24.913Z,4.40
2018-06-13T13:29:24.925Z,3.80
2018-06-13T13:30:24.822Z,3.20
2018-06-13T13:31:24.669Z,3.10
2018-06-13T13:32:24.637Z,4.90
2018-06-13T13:33:24.650Z,3.40
2018-06-13T13:34:24.911Z,3.40
2018-06-13T13:35:24.561Z,4.60
2018-06-13T13:36:24.766Z,3.30
2018-06-13T13:37:25.125Z,3.60
2018-06-13T13:38:24.585Z,3.50
2018-06-13T13:39:25.284Z,4.70
2018-06-13T13:40:25.065Z,5.50
2018-06-13T13:41:24.943Z,4.70